Time;durP1;ratioP1;P1;durP2;ratioP2;P2;SDS_P1;SDS_P2;PMS_P1;PMS_P2;Temp;Humidity;BMP_temperature;BMP_pressure;BME280_temperature;BME280_humidity;BME280_pressure;Samples;Min_cycle;Max_cycle;Signal;HPM_P1;HPM_P2
2023/03/14 00:02:21;;;;;;;;;;;;;;;;;;5075474;28;19916;-75
2023/03/14 00:04:47;;;;;;;;;;;;;;;;;;5073767;28;20281;-74
2023/03/14 00:07:13;;;;;;;;;;;;;;;;;;5075185;28;19919;-76
2023/03/14 00:09:39;;;;;;;;;;;;;;;;;;5074947;28;20387;-75
2023/03/14 00:12:06;;;;;;;;;;;;;;;;;;5073850;28;20001;-76
2023/03/14 00:14:32;;;;;;;;;;;;;;;;;;5075181;28;19919;-74
2023/03/14 00:16:58;;;;;;;;;;;;;;;;;;5074800;28;19912;-74
2023/03/14 00:19:24;;;;;;;;;;;;;;;;;;5075242;28;20292;-74
2023/03/14 00:21:50;;;;;;;;;;;;;;;;;;5073144;28;19909;-74
2023/03/14 00:24:16;;;;;;;;;;;;;;;;;;5073652;28;19915;-74
2023/03/14 00:26:45;;;;;;;;;;;;;;;;;;5074832;28;19917;-74
2023/03/14 00:29:11;;;;;;;;;;;;;;;;;;5074834;28;20320;-74
2023/03/14 00:31:36;;;;;;;;;;;;;;;;;;5074392;28;19916;-75
2023/03/14 00:34:02;;;;;;;;;;;;;;;;;;5074680;28;19909;-75
2023/03/14 00:36:28;;;;;;;;;;;;;;;;;;5074866;28;19934;-75
2023/03/14 00:38:54;;;;;;;;;;;;;;;;;;5074396;28;19920;-74
2023/03/14 00:41:22;;;;;;;;;;;;;;;;;;5074077;28;20361;-75
2023/03/14 00:43:47;;;;;;;;;;;;;;;;;;5074592;28;19912;-75
2023/03/14 00:46:13;;;;;;;;;;;;;;;;;;5074330;28;19912;-75
2023/03/14 00:48:39;;;;;;;;;;;;;;;;;;5073991;28;19999;-75
2023/03/14 00:51:05;;;;;;;;;;;;;;;;;;5053582;28;20019;-75
2023/03/14 00:53:31;;;;;;;;;;;;;;;;;;5054107;28;19909;-74
2023/03/14 00:55:57;;;;;;;;;;;;;;;;;;5044868;28;19921;-74
2023/03/14 00:58:23;;;;;;;;;;;;;;;;;;5073894;28;19915;-75
2023/03/14 01:00:49;;;;;;;;;;;;;;;;;;5074175;28;19908;-75
2023/03/14 01:03:15;;;;;;;;;;;;;;;;;;5073796;28;20440;-75
2023/03/14 01:05:41;;;;;;;;;;;;;;;;;;5058993;28;20006;-74
2023/03/14 01:08:07;;;;;;;;;;;;;;;;;;5054063;28;19937;-75
2023/03/14 01:10:33;;;;;;;;;;;;;;;;;;5053837;28;19909;-74
2023/03/14 01:12:59;;;;;;;;;;;;;;;;;;5053954;28;19909;-74
2023/03/14 01:15:25;;;;;;;;;;;;;;;;;;5053727;28;19992;-74
2023/03/14 01:17:51;;;;;;;;;;;;;;;;;;5053861;28;19909;-75
2023/03/14 01:20:16;;;;;;;;;;;;;;;;;;5053870;28;20277;-75
2023/03/14 01:22:42;;;;;;;;;;;;;;;;;;5052294;28;20280;-75
2023/03/14 01:25:08;;;;;;;;;;;;;;;;;;5053487;28;19909;-75
2023/03/14 01:27:34;;;;;;;;;;;;;;;;;;5053586;28;20003;-75
2023/03/14 01:30:00;;;;;;;;;;;;;;;;;;5053812;28;19944;-75
2023/03/14 01:32:26;;;;;;;;;;;;;;;;;;5053710;28;20362;-75
2023/03/14 01:34:52;;;;;;;;;;;;;;;;;;5053182;28;19920;-75
2023/03/14 01:37:18;;;;;;;;;;;;;;;;;;5053558;28;20281;-74
2023/03/14 01:39:44;;;;;;;;;;;;;;;;;;5053331;28;19943;-75
2023/03/14 01:42:10;;;;;;;;;;;;;;;;;;5053696;28;20258;-74
2023/03/14 01:44:36;;;;;;;;;;;;;;;;;;5053149;28;19909;-74
2023/03/14 01:47:02;;;;;;;;;;;;;;;;;;5053115;28;19924;-74
2023/03/14 01:49:27;;;;;;;;;;;;;;;;;;5052110;28;19908;-74
2023/03/14 01:51:53;;;;;;;;;;;;;;;;;;5053375;28;20007;-75
2023/03/14 01:54:19;;;;;;;;;;;;;;;;;;5053131;28;19959;-74
2023/03/14 01:56:45;;;;;;;;;;;;;;;;;;5034585;28;19967;-74
2023/03/14 01:59:11;;;;;;;;;;;;;;;;;;5053111;28;20297;-75
2023/03/14 02:01:37;;;;;;;;;;;;;;;;;;5052749;28;19909;-75
2023/03/14 02:04:03;;;;;;;;;;;;;;;;;;5053242;28;20003;-76
2023/03/14 02:06:29;;;;;;;;;;;;;;;;;;5051421;28;19913;-75
2023/03/14 02:08:55;;;;;;;;;;;;;;;;;;5053208;28;20281;-75
2023/03/14 02:11:21;;;;;;;;;;;;;;;;;;5051946;28;19909;-75
2023/03/14 02:13:47;;;;;;;;;;;;;;;;;;5053152;28;19910;-76
2023/03/14 02:16:13;;;;;;;;;;;;;;;;;;5053039;28;19915;-75
2023/03/14 02:18:40;;;;;;;;;;;;;;;;;;5057310;28;19912;-74
2023/03/14 02:21:06;;;;;;;;;;;;;;;;;;5057230;28;20356;-73
2023/03/14 02:23:32;;;;;;;;;;;;;;;;;;5057244;28;19948;-75
2023/03/14 02:25:58;;;;;;;;;;;;;;;;;;5056624;28;19974;-74
2023/03/14 02:28:24;;;;;;;;;;;;;;;;;;5057189;28;19909;-75
2023/03/14 02:30:49;;;;;;;;;;;;;;;;;;5056958;28;19913;-75
2023/03/14 02:33:15;;;;;;;;;;;;;;;;;;5055702;28;19962;-74
2023/03/14 02:35:41;;;;;;;;;;;;;;;;;;5056568;28;19908;-74
2023/03/14 02:38:07;;;;;;;;;;;;;;;;;;5056896;28;20280;-75
2023/03/14 02:40:33;;;;;;;;;;;;;;;;;;5056661;28;20400;-73
2023/03/14 02:42:59;;;;;;;;;;;;;;;;;;5056765;28;20003;-74
2023/03/14 02:45:25;;;;;;;;;;;;;;;;;;5055062;28;19959;-73
2023/03/14 02:47:51;;;;;;;;;;;;;;;;;;5056745;28;19951;-73
2023/03/14 02:50:17;;;;;;;;;;;;;;;;;;5056662;28;19963;-75
2023/03/14 02:52:43;;;;;;;;;;;;;;;;;;5056621;28;19913;-75
2023/03/14 02:55:09;;;;;;;;;;;;;;;;;;5037789;28;19909;-75
2023/03/14 02:57:35;;;;;;;;;;;;;;;;;;5056365;28;19916;-73
2023/03/14 03:00:00;;;;;;;;;;;;;;;;;;5056765;28;19908;-74
2023/03/14 03:02:26;;;;;;;;;;;;;;;;;;5055312;28;19915;-73
2023/03/14 03:04:52;;;;;;;;;;;;;;;;;;5056187;28;20366;-75
2023/03/14 03:07:19;;;;;;;;;;;;;;;;;;5056347;28;19945;-73
2023/03/14 03:09:44;;;;;;;;;;;;;;;;;;5056291;28;19909;-75
2023/03/14 03:12:10;;;;;;;;;;;;;;;;;;5056301;28;19908;-74
2023/03/14 03:14:37;;;;;;;;;;;;;;;;;;5056096;28;20384;-75
2023/03/14 03:17:03;;;;;;;;;;;;;;;;;;5056129;28;19912;-74
2023/03/14 03:19:29;;;;;;;;;;;;;;;;;;5054937;28;19909;-73
2023/03/14 03:21:55;;;;;;;;;;;;;;;;;;5054700;28;19909;-75
2023/03/14 03:24:21;;;;;;;;;;;;;;;;;;5056111;28;19964;-73
2023/03/14 03:26:47;;;;;;;;;;;;;;;;;;5054902;28;19913;-74
2023/03/14 03:29:12;;;;;;;;;;;;;;;;;;5055226;28;19952;-75
2023/03/14 03:31:38;;;;;;;;;;;;;;;;;;5055965;28;19912;-74
2023/03/14 03:34:04;;;;;;;;;;;;;;;;;;5054454;28;20027;-74
2023/03/14 03:36:30;;;;;;;;;;;;;;;;;;5055523;28;19916;-73
2023/03/14 03:38:56;;;;;;;;;;;;;;;;;;5055627;28;19917;-73
2023/03/14 03:41:22;;;;;;;;;;;;;;;;;;5055785;28;20404;-74
2023/03/14 03:43:48;;;;;;;;;;;;;;;;;;5054425;28;20431;-75
2023/03/14 03:46:14;;;;;;;;;;;;;;;;;;5055158;28;19913;-73
2023/03/14 03:48:40;;;;;;;;;;;;;;;;;;5056070;28;20254;-75
2023/03/14 03:51:06;;;;;;;;;;;;;;;;;;5055550;28;19909;-73
2023/03/14 03:53:32;;;;;;;;;;;;;;;;;;5055550;28;20277;-73
2023/03/14 03:55:58;;;;;;;;;;;;;;;;;;5036482;28;20019;-75
2023/03/14 03:58:24;;;;;;;;;;;;;;;;;;5055175;28;20345;-74
2023/03/14 04:00:50;;;;;;;;;;;;;;;;;;5055511;28;20389;-74
2023/03/14 04:03:16;;;;;;;;;;;;;;;;;;5054005;28;19908;-74
2023/03/14 04:05:42;;;;;;;;;;;;;;;;;;5062937;28;19924;-74
2023/03/14 04:08:08;;;;;;;;;;;;;;;;;;5075256;28;19909;-74
2023/03/14 04:10:33;;;;;;;;;;;;;;;;;;5075065;28;19909;-73
2023/03/14 04:12:59;;;;;;;;;;;;;;;;;;5075196;28;19908;-76
2023/03/14 04:15:25;;;;;;;;;;;;;;;;;;5074697;28;19986;-74
2023/03/14 04:17:51;;;;;;;;;;;;;;;;;;5075220;28;19915;-76
2023/03/14 04:20:17;;;;;;;;;;;;;;;;;;5074971;28;19908;-73
2023/03/14 04:22:43;;;;;;;;;;;;;;;;;;5074892;28;19908;-74
2023/03/14 04:25:09;;;;;;;;;;;;;;;;;;5074623;28;20153;-74
2023/03/14 04:27:35;;;;;;;;;;;;;;;;;;5074807;28;19919;-74
2023/03/14 04:30:01;;;;;;;;;;;;;;;;;;5074925;28;19909;-75
2023/03/14 04:32:27;;;;;;;;;;;;;;;;;;5074736;28;19909;-73
2023/03/14 04:34:53;;;;;;;;;;;;;;;;;;5074349;28;19916;-74
2023/03/14 04:37:19;;;;;;;;;;;;;;;;;;5074556;28;19909;-73
2023/03/14 04:39:45;;;;;;;;;;;;;;;;;;5074084;28;20297;-75
2023/03/14 04:42:10;;;;;;;;;;;;;;;;;;5074581;28;19916;-74
2023/03/14 04:44:36;;;;;;;;;;;;;;;;;;5074466;28;19909;-73
2023/03/14 04:47:02;;;;;;;;;;;;;;;;;;5073944;28;20011;-74
2023/03/14 04:49:28;;;;;;;;;;;;;;;;;;5074340;28;19997;-74
2023/03/14 04:51:54;;;;;;;;;;;;;;;;;;5074484;28;19908;-74
2023/03/14 04:54:20;;;;;;;;;;;;;;;;;;5074334;28;19959;-74
2023/03/14 04:56:46;;;;;;;;;;;;;;;;;;5055128;28;19915;-73
2023/03/14 04:59:12;;;;;;;;;;;;;;;;;;5073976;28;19916;-74
2023/03/14 05:01:38;;;;;;;;;;;;;;;;;;5074239;28;19917;-73
2023/03/14 05:04:04;;;;;;;;;;;;;;;;;;5074295;28;19912;-74
2023/03/14 05:06:30;;;;;;;;;;;;;;;;;;5073553;28;19919;-74
2023/03/14 05:08:56;;;;;;;;;;;;;;;;;;5074089;28;19915;-73
2023/03/14 05:11:21;;;;;;;;;;;;;;;;;;5073963;28;19909;-74
2023/03/14 05:13:47;;;;;;;;;;;;;;;;;;5073980;28;19931;-73
2023/03/14 05:16:13;;;;;;;;;;;;;;;;;;5073642;28;20372;-74
2023/03/14 05:18:39;;;;;;;;;;;;;;;;;;5073885;28;19908;-74
2023/03/14 05:21:05;;;;;;;;;;;;;;;;;;5073863;28;19915;-73
2023/03/14 05:23:31;;;;;;;;;;;;;;;;;;5073786;28;20281;-73
2023/03/14 05:25:57;;;;;;;;;;;;;;;;;;5073339;28;19912;-74
2023/03/14 05:28:23;;;;;;;;;;;;;;;;;;5073754;28;19909;-72
2023/03/14 05:30:49;;;;;;;;;;;;;;;;;;5073665;28;19908;-73
2023/03/14 05:33:15;;;;;;;;;;;;;;;;;;5072373;28;20003;-72
2023/03/14 05:35:41;;;;;;;;;;;;;;;;;;5068523;28;20270;-74
2023/03/14 05:38:07;;;;;;;;;;;;;;;;;;5052268;28;20373;-75
2023/03/14 05:40:32;;;;;;;;;;;;;;;;;;5053163;28;19931;-73
2023/03/14 05:42:58;;;;;;;;;;;;;;;;;;5053538;28;19909;-73
2023/03/14 05:45:24;;;;;;;;;;;;;;;;;;5053010;28;19909;-72
2023/03/14 05:47:50;;;;;;;;;;;;;;;;;;5053432;28;19962;-74
2023/03/14 05:50:16;;;;;;;;;;;;;;;;;;5052826;28;19915;-73
2023/03/14 05:52:42;;;;;;;;;;;;;;;;;;5053298;28;19920;-74
2023/03/14 05:55:08;;;;;;;;;;;;;;;;;;5053451;28;20004;-74
2023/03/14 05:57:34;;;;;;;;;;;;;;;;;;5034489;28;19948;-73
2023/03/14 06:00:01;;;;;;;;;;;;;;;;;;5052094;28;19955;-74
2023/03/14 06:02:27;;;;;;;;;;;;;;;;;;5051905;28;19916;-74
2023/03/14 06:04:53;;;;;;;;;;;;;;;;;;5053287;28;19908;-74
2023/03/14 06:07:19;;;;;;;;;;;;;;;;;;5051338;28;19917;-73
2023/03/14 06:09:45;;;;;;;;;;;;;;;;;;5053113;28;20007;-72
2023/03/14 06:12:11;;;;;;;;;;;;;;;;;;5052208;28;19959;-73
2023/03/14 06:14:37;;;;;;;;;;;;;;;;;;5053180;28;19909;-74
2023/03/14 06:17:03;;;;;;;;;;;;;;;;;;5052723;28;19913;-73
2023/03/14 06:19:29;;;;;;;;;;;;;;;;;;5053194;28;19909;-72
2023/03/14 06:21:55;;;;;;;;;;;;;;;;;;5052914;28;19967;-73
2023/03/14 06:24:20;;;;;;;;;;;;;;;;;;5053229;28;19916;-73
2023/03/14 06:26:46;;;;;;;;;;;;;;;;;;5051203;28;19919;-73
2023/03/14 06:29:13;;;;;;;;;;;;;;;;;;5053144;28;20002;-73
2023/03/14 06:31:39;;;;;;;;;;;;;;;;;;5051697;28;19920;-73
2023/03/14 06:34:05;;;;;;;;;;;;;;;;;;5052750;28;19913;-73
2023/03/14 06:36:31;;;;;;;;;;;;;;;;;;5051365;28;19916;-73
2023/03/14 06:38:57;;;;;;;;;;;;;;;;;;5052651;28;19960;-73
2023/03/14 06:41:25;;;;;;;;;;;;;;;;;;5053041;28;19966;-72
2023/03/14 06:43:51;;;;;;;;;;;;;;;;;;5052800;28;19909;-74
2023/03/14 06:46:17;;;;;;;;;;;;;;;;;;5052284;28;19920;-74
2023/03/14 06:48:43;;;;;;;;;;;;;;;;;;5052914;28;19909;-73
2023/03/14 06:51:09;;;;;;;;;;;;;;;;;;5051366;28;19913;-74
2023/03/14 06:53:35;;;;;;;;;;;;;;;;;;5052540;28;19909;-73
2023/03/14 06:56:01;;;;;;;;;;;;;;;;;;5052308;28;19909;-73
2023/03/14 06:58:27;;;;;;;;;;;;;;;;;;5034088;28;19963;-73
2023/03/14 07:00:54;;;;;;;;;;;;;;;;;;5052787;28;19947;-75
2023/03/14 07:03:20;;;;;;;;;;;;;;;;;;5055840;28;19958;-73
2023/03/14 07:05:46;;;;;;;;;;;;;;;;;;5056165;28;20259;-74
2023/03/14 07:08:12;;;;;;;;;;;;;;;;;;5056334;28;19908;-73
2023/03/14 07:10:38;;;;;;;;;;;;;;;;;;5056196;28;20415;-74
2023/03/14 07:13:03;;;;;;;;;;;;;;;;;;5056275;28;19996;-73
2023/03/14 07:15:29;;;;;;;;;;;;;;;;;;5056152;28;19909;-75
2023/03/14 07:17:55;;;;;;;;;;;;;;;;;;5056205;28;19955;-74
2023/03/14 07:20:21;;;;;;;;;;;;;;;;;;5056247;28;19915;-73
2023/03/14 07:22:47;;;;;;;;;;;;;;;;;;5055938;28;20004;-74
2023/03/14 07:25:13;;;;;;;;;;;;;;;;;;5056077;28;19909;-74
2023/03/14 07:27:39;;;;;;;;;;;;;;;;;;5055712;28;20464;-74
2023/03/14 07:30:05;;;;;;;;;;;;;;;;;;5055946;28;19959;-74
2023/03/14 07:32:31;;;;;;;;;;;;;;;;;;5055959;28;19915;-73
2023/03/14 07:34:57;;;;;;;;;;;;;;;;;;5055617;28;19909;-73
2023/03/14 07:37:23;;;;;;;;;;;;;;;;;;5055417;28;19916;-73
2023/03/14 07:39:49;;;;;;;;;;;;;;;;;;5055648;28;19971;-73
2023/03/14 07:42:15;;;;;;;;;;;;;;;;;;5055736;28;20396;-74
2023/03/14 07:44:41;;;;;;;;;;;;;;;;;;5055786;28;20395;-75
2023/03/14 07:47:07;;;;;;;;;;;;;;;;;;5055035;28;19952;-75
2023/03/14 07:49:33;;;;;;;;;;;;;;;;;;5055604;28;19909;-75
2023/03/14 07:51:59;;;;;;;;;;;;;;;;;;5055551;28;19912;-74
2023/03/14 07:54:25;;;;;;;;;;;;;;;;;;5055445;28;19909;-74
2023/03/14 07:56:51;;;;;;;;;;;;;;;;;;5055159;28;19916;-73
2023/03/14 07:59:17;;;;;;;;;;;;;;;;;;5035111;28;19922;-73
2023/03/14 08:01:43;;;;;;;;;;;;;;;;;;5055508;28;20280;-75
2023/03/14 08:04:09;;;;;;;;;;;;;;;;;;5055265;28;19909;-75
2023/03/14 08:06:35;;;;;;;;;;;;;;;;;;5062711;28;20273;-73
2023/03/14 08:09:01;;;;;;;;;;;;;;;;;;5074216;28;19935;-75
2023/03/14 08:11:27;;;;;;;;;;;;;;;;;;5075837;28;19934;-76
2023/03/14 08:13:53;;;;;;;;;;;;;;;;;;5074964;28;19908;-74
2023/03/14 08:16:19;;;;;;;;;;;;;;;;;;5075419;28;19962;-75
2023/03/14 08:18:45;;;;;;;;;;;;;;;;;;5074317;28;20058;-72
2023/03/14 08:21:11;;;;;;;;;;;;;;;;;;5075885;28;20383;-74
2023/03/14 08:23:37;;;;;;;;;;;;;;;;;;5075430;28;20385;-74
2023/03/14 08:26:03;;;;;;;;;;;;;;;;;;5075418;28;19916;-75
2023/03/14 08:28:30;;;;;;;;;;;;;;;;;;5075505;28;20359;-75
2023/03/14 08:30:56;;;;;;;;;;;;;;;;;;5075627;28;19962;-75
2023/03/14 08:33:22;;;;;;;;;;;;;;;;;;5075082;28;19916;-75
2023/03/14 08:35:48;;;;;;;;;;;;;;;;;;5075147;28;19909;-75
2023/03/14 08:38:14;;;;;;;;;;;;;;;;;;5055412;28;20475;-74
2023/03/14 08:40:40;;;;;;;;;;;;;;;;;;5054832;28;20016;-76
2023/03/14 08:43:06;;;;;;;;;;;;;;;;;;5055277;28;19948;-74
2023/03/14 08:45:32;;;;;;;;;;;;;;;;;;5055213;28;20387;-75
2023/03/14 08:47:58;;;;;;;;;;;;;;;;;;5054464;28;19909;-74
2023/03/14 08:50:24;;;;;;;;;;;;;;;;;;5055084;28;19947;-74
2023/03/14 08:52:50;;;;;;;;;;;;;;;;;;5055160;28;20285;-73
2023/03/14 08:55:16;;;;;;;;;;;;;;;;;;5054974;28;19958;-74
2023/03/14 08:57:42;;;;;;;;;;;;;;;;;;5054574;28;19913;-73
2023/03/14 09:00:12;;;;;;;;;;;;;;;;;;5036566;28;19916;-76
2023/03/14 09:02:38;;;;;;;;;;;;;;;;;;5053590;28;19909;-75
2023/03/14 09:05:04;;;;;;;;;;;;;;;;;;5054552;28;19908;-74
2023/03/14 09:07:30;;;;;;;;;;;;;;;;;;5067287;28;19952;-74
2023/03/14 09:09:55;;;;;;;;;;;;;;;;;;5074711;28;19940;-75
2023/03/14 09:12:21;;;;;;;;;;;;;;;;;;5073514;28;19908;-74
2023/03/14 09:14:47;;;;;;;;;;;;;;;;;;5074550;28;19909;-75
2023/03/14 09:17:13;;;;;;;;;;;;;;;;;;5074385;28;19908;-74
2023/03/14 09:19:39;;;;;;;;;;;;;;;;;;5074474;28;19991;-73
2023/03/14 09:22:05;;;;;;;;;;;;;;;;;;5074159;28;20320;-73
2023/03/14 09:24:31;;;;;;;;;;;;;;;;;;5074381;28;20406;-74
2023/03/14 09:26:57;;;;;;;;;;;;;;;;;;5074389;28;20335;-74
2023/03/14 09:29:24;;;;;;;;;;;;;;;;;;5073979;28;20421;-74
2023/03/14 09:31:50;;;;;;;;;;;;;;;;;;5073942;28;19916;-74
2023/03/14 09:34:16;;;;;;;;;;;;;;;;;;5073993;28;19908;-75
2023/03/14 09:36:44;;;;;;;;;;;;;;;;;;5072738;28;20515;-73
2023/03/14 09:39:10;;;;;;;;;;;;;;;;;;5073757;28;20047;-75
2023/03/14 09:41:35;;;;;;;;;;;;;;;;;;5074117;28;20388;-75
2023/03/14 09:44:01;;;;;;;;;;;;;;;;;;5073853;28;19932;-75
2023/03/14 09:46:27;;;;;;;;;;;;;;;;;;5073255;28;20296;-75
2023/03/14 09:48:53;;;;;;;;;;;;;;;;;;5072487;28;20357;-75
2023/03/14 09:51:20;;;;;;;;;;;;;;;;;;5072451;28;19915;-74
2023/03/14 09:53:46;;;;;;;;;;;;;;;;;;5072484;28;19926;-74
2023/03/14 09:56:12;;;;;;;;;;;;;;;;;;5073640;28;20390;-74
2023/03/14 09:58:37;;;;;;;;;;;;;;;;;;5072421;28;19908;-74
2023/03/14 10:01:03;;;;;;;;;;;;;;;;;;5074209;28;19909;-74
2023/03/14 10:03:29;;;;;;;;;;;;;;;;;;5073635;28;19916;-75
2023/03/14 10:05:55;;;;;;;;;;;;;;;;;;5073546;28;19913;-75
2023/03/14 10:08:21;;;;;;;;;;;;;;;;;;5072294;28;19908;-75
2023/03/14 10:10:47;;;;;;;;;;;;;;;;;;5073598;28;19908;-76
2023/03/14 10:13:13;;;;;;;;;;;;;;;;;;5074052;28;19909;-76
2023/03/14 10:15:39;;;;;;;;;;;;;;;;;;5073814;28;19915;-76
2023/03/14 10:18:09;;;;;;;;;;;;;;;;;;5073517;28;20002;-74
2023/03/14 10:20:35;;;;;;;;;;;;;;;;;;5073470;28;19909;-74
2023/03/14 10:23:01;;;;;;;;;;;;;;;;;;5072188;28;20386;-73
2023/03/14 10:25:27;;;;;;;;;;;;;;;;;;5073594;28;19908;-74
2023/03/14 10:27:53;;;;;;;;;;;;;;;;;;5073364;28;19920;-73
2023/03/14 10:30:19;;;;;;;;;;;;;;;;;;5073435;28;19959;-72
2023/03/14 10:32:45;;;;;;;;;;;;;;;;;;5073447;28;19916;-74
2023/03/14 10:35:11;;;;;;;;;;;;;;;;;;5074028;28;19915;-74
2023/03/14 10:37:37;;;;;;;;;;;;;;;;;;5075484;28;19908;-72
2023/03/14 10:40:05;;;;;;;;;;;;;;;;;;5077284;28;19924;-71
2023/03/14 10:42:31;;;;;;;;;;;;;;;;;;5077174;28;19916;-74
2023/03/14 10:44:57;;;;;;;;;;;;;;;;;;5077597;28;19923;-72
2023/03/14 10:47:23;;;;;;;;;;;;;;;;;;5077108;28;20322;-74
2023/03/14 10:49:49;;;;;;;;;;;;;;;;;;5077489;28;19915;-74
2023/03/14 10:52:15;;;;;;;;;;;;;;;;;;5077079;28;20002;-74
2023/03/14 10:54:44;;;;;;;;;;;;;;;;;;5076940;28;20394;-73
2023/03/14 10:57:10;;;;;;;;;;;;;;;;;;5077016;28;19916;-73
2023/03/14 10:59:36;;;;;;;;;;;;;;;;;;5077270;28;19909;-72
2023/03/14 11:02:02;;;;;;;;;;;;;;;;;;5075539;28;20003;-73
2023/03/14 11:04:31;;;;;;;;;;;;;;;;;;5076754;28;19909;-74
2023/03/14 11:06:58;;;;;;;;;;;;;;;;;;5075317;28;19913;-76
2023/03/14 11:09:24;;;;;;;;;;;;;;;;;;5075370;28;19995;-73
2023/03/14 11:11:49;;;;;;;;;;;;;;;;;;5076670;28;19943;-73
2023/03/14 11:14:15;;;;;;;;;;;;;;;;;;5076739;28;19915;-73
2023/03/14 11:16:41;;;;;;;;;;;;;;;;;;5076515;28;19913;-73
2023/03/14 11:19:07;;;;;;;;;;;;;;;;;;5076577;28;19908;-74
2023/03/14 11:21:33;;;;;;;;;;;;;;;;;;5077025;28;19908;-73
2023/03/14 11:23:59;;;;;;;;;;;;;;;;;;5076471;28;19915;-74
2023/03/14 11:26:25;;;;;;;;;;;;;;;;;;5076400;28;19908;-72
2023/03/14 11:28:51;;;;;;;;;;;;;;;;;;5076396;28;19908;-72
2023/03/14 11:31:17;;;;;;;;;;;;;;;;;;5076643;28;19915;-73
2023/03/14 11:33:43;;;;;;;;;;;;;;;;;;5076270;28;19916;-75
2023/03/14 11:36:09;;;;;;;;;;;;;;;;;;5076387;28;19913;-72
2023/03/14 11:38:35;;;;;;;;;;;;;;;;;;5075989;28;19914;-74
2023/03/14 11:41:01;;;;;;;;;;;;;;;;;;5076538;28;19916;-73
2023/03/14 11:43:28;;;;;;;;;;;;;;;;;;5076354;28;20361;-74
2023/03/14 11:45:54;;;;;;;;;;;;;;;;;;5076069;28;19908;-72
2023/03/14 11:48:19;;;;;;;;;;;;;;;;;;5074616;28;19912;-74
2023/03/14 11:50:45;;;;;;;;;;;;;;;;;;5076172;28;20289;-74
2023/03/14 11:53:11;;;;;;;;;;;;;;;;;;5076304;28;20365;-75
2023/03/14 11:55:38;;;;;;;;;;;;;;;;;;5075777;28;19909;-73
2023/03/14 11:58:04;;;;;;;;;;;;;;;;;;5075786;28;19999;-71
2023/03/14 12:00:30;;;;;;;;;;;;;;;;;;5075965;28;19940;-73
2023/03/14 12:02:56;;;;;;;;;;;;;;;;;;5074853;28;19920;-74
2023/03/14 12:05:22;;;;;;;;;;;;;;;;;;5066527;28;19919;-74
2023/03/14 12:07:48;;;;;;;;;;;;;;;;;;5067908;28;19991;-73
2023/03/14 12:10:13;;;;;;;;;;;;;;;;;;5071753;28;19936;-73
2023/03/14 12:12:39;;;;;;;;;;;;;;;;;;5075050;28;19912;-74
2023/03/14 12:15:05;;;;;;;;;;;;;;;;;;5074804;28;19924;-73
2023/03/14 12:17:31;;;;;;;;;;;;;;;;;;5074813;28;19966;-73
2023/03/14 12:19:57;;;;;;;;;;;;;;;;;;5074835;28;19908;-73
2023/03/14 12:22:23;;;;;;;;;;;;;;;;;;5074739;28;19916;-74
2023/03/14 12:24:49;;;;;;;;;;;;;;;;;;5074672;28;19912;-73
2023/03/14 12:27:15;;;;;;;;;;;;;;;;;;5074699;28;19915;-76
2023/03/14 12:29:41;;;;;;;;;;;;;;;;;;5074611;28;19958;-75
2023/03/14 12:32:07;;;;;;;;;;;;;;;;;;5074644;28;19940;-76
2023/03/14 12:34:33;;;;;;;;;;;;;;;;;;5074497;28;19955;-74
2023/03/14 12:36:59;;;;;;;;;;;;;;;;;;5075047;28;19916;-75
2023/03/14 12:39:25;;;;;;;;;;;;;;;;;;5075184;28;19959;-76
2023/03/14 12:41:51;;;;;;;;;;;;;;;;;;5075012;28;19916;-73
2023/03/14 12:44:17;;;;;;;;;;;;;;;;;;5074972;28;19910;-72
2023/03/14 12:46:43;;;;;;;;;;;;;;;;;;5074907;28;19920;-73
2023/03/14 12:49:09;;;;;;;;;;;;;;;;;;5074897;28;19915;-73
2023/03/14 12:51:36;;;;;;;;;;;;;;;;;;5074786;28;20372;-75
2023/03/14 12:54:01;;;;;;;;;;;;;;;;;;5074909;28;19958;-74
2023/03/14 12:56:27;;;;;;;;;;;;;;;;;;5074582;28;19917;-73
2023/03/14 12:58:53;;;;;;;;;;;;;;;;;;5074996;28;20380;-72
2023/03/14 13:01:19;;;;;;;;;;;;;;;;;;5074296;28;20376;-72
2023/03/14 13:03:45;;;;;;;;;;;;;;;;;;5074575;28;19908;-73
2023/03/14 13:06:12;;;;;;;;;;;;;;;;;;5074521;28;19916;-75
2023/03/14 13:08:38;;;;;;;;;;;;;;;;;;5074417;28;20349;-75
2023/03/14 13:11:03;;;;;;;;;;;;;;;;;;5074423;28;19908;-76
2023/03/14 13:13:29;;;;;;;;;;;;;;;;;;5074457;28;19915;-73
2023/03/14 13:15:58;;;;;;;;;;;;;;;;;;5074021;28;19912;-73
2023/03/14 13:18:23;;;;;;;;;;;;;;;;;;5074723;28;19957;-73
2023/03/14 13:20:49;;;;;;;;;;;;;;;;;;5074485;28;20391;-75
2023/03/14 13:23:15;;;;;;;;;;;;;;;;;;5074188;28;20426;-72
2023/03/14 13:25:41;;;;;;;;;;;;;;;;;;5074215;28;19915;-74
2023/03/14 13:28:07;;;;;;;;;;;;;;;;;;5074349;28;19944;-74
2023/03/14 13:30:33;;;;;;;;;;;;;;;;;;5074042;28;19913;-73
2023/03/14 13:32:59;;;;;;;;;;;;;;;;;;5074409;28;20331;-73
2023/03/14 13:35:25;;;;;;;;;;;;;;;;;;5073978;28;19908;-73
2023/03/14 13:37:51;;;;;;;;;;;;;;;;;;5074083;28;19912;-73
2023/03/14 13:40:17;;;;;;;;;;;;;;;;;;5073916;28;20273;-72
2023/03/14 13:42:43;;;;;;;;;;;;;;;;;;5073926;28;20396;-73
2023/03/14 13:45:09;;;;;;;;;;;;;;;;;;5072630;28;19916;-73
2023/03/14 13:47:34;;;;;;;;;;;;;;;;;;5073843;28;19908;-74
2023/03/14 13:50:00;;;;;;;;;;;;;;;;;;5072519;28;19908;-73
2023/03/14 13:52:26;;;;;;;;;;;;;;;;;;5073810;28;20043;-73
2023/03/14 13:54:52;;;;;;;;;;;;;;;;;;5072292;28;19912;-74
2023/03/14 13:57:18;;;;;;;;;;;;;;;;;;5073633;28;19912;-74
2023/03/14 13:59:44;;;;;;;;;;;;;;;;;;5073711;28;19908;-74
2023/03/14 14:02:10;;;;;;;;;;;;;;;;;;5073882;28;19909;-76
2023/03/14 14:04:36;;;;;;;;;;;;;;;;;;5074016;28;19909;-74
2023/03/14 14:07:02;;;;;;;;;;;;;;;;;;5073663;28;19909;-75
2023/03/14 14:09:28;;;;;;;;;;;;;;;;;;5072305;28;19909;-75
2023/03/14 14:11:54;;;;;;;;;;;;;;;;;;5072883;28;19999;-75
2023/03/14 14:14:20;;;;;;;;;;;;;;;;;;5073908;28;19931;-74
2023/03/14 14:16:46;;;;;;;;;;;;;;;;;;5073643;28;20265;-73
2023/03/14 14:19:12;;;;;;;;;;;;;;;;;;5073542;28;19909;-75
2023/03/14 14:21:38;;;;;;;;;;;;;;;;;;5073561;28;20382;-76
2023/03/14 14:24:04;;;;;;;;;;;;;;;;;;5073484;28;20380;-75
2023/03/14 14:26:30;;;;;;;;;;;;;;;;;;5073463;28;19947;-74
2023/03/14 14:28:56;;;;;;;;;;;;;;;;;;5073491;28;19909;-74
2023/03/14 14:31:22;;;;;;;;;;;;;;;;;;5073418;28;19917;-75
2023/03/14 14:33:49;;;;;;;;;;;;;;;;;;5073416;28;19909;-75
2023/03/14 14:36:16;;;;;;;;;;;;;;;;;;5073337;28;19917;-73
2023/03/14 14:38:42;;;;;;;;;;;;;;;;;;5073333;28;20426;-74
2023/03/14 14:41:09;;;;;;;;;;;;;;;;;;5073525;28;19951;-73
2023/03/14 14:43:38;;;;;;;;;;;;;;;;;;5073363;28;19962;-74
2023/03/14 14:46:04;;;;;;;;;;;;;;;;;;5073378;28;19908;-75
2023/03/14 14:48:31;;;;;;;;;;;;;;;;;;5073263;28;20342;-73
2023/03/14 14:50:58;;;;;;;;;;;;;;;;;;5073470;28;20321;-73
2023/03/14 14:53:24;;;;;;;;;;;;;;;;;;5073398;28;19909;-74
2023/03/14 14:55:51;;;;;;;;;;;;;;;;;;5073092;28;20345;-75
2023/03/14 14:58:18;;;;;;;;;;;;;;;;;;5073053;28;19958;-74
2023/03/14 15:00:49;;;;;;;;;;;;;;;;;;5073394;28;19963;-73
2023/03/14 15:03:15;;;;;;;;;;;;;;;;;;5073087;28;19909;-74
2023/03/14 15:05:42;;;;;;;;;;;;;;;;;;5071784;28;20277;-73
2023/03/14 15:08:11;;;;;;;;;;;;;;;;;;5073354;28;19916;-74
2023/03/14 15:10:38;;;;;;;;;;;;;;;;;;5073309;28;19909;-75
2023/03/14 15:13:04;;;;;;;;;;;;;;;;;;5073586;28;19908;-75
2023/03/14 15:15:30;;;;;;;;;;;;;;;;;;5071692;28;20387;-73
2023/03/14 15:17:55;;;;;;;;;;;;;;;;;;5073305;28;20003;-74
2023/03/14 15:20:23;;;;;;;;;;;;;;;;;;5072931;28;19947;-73
2023/03/14 15:22:50;;;;;;;;;;;;;;;;;;5073722;28;20300;-73
2023/03/14 15:25:16;;;;;;;;;;;;;;;;;;5074998;28;19916;-74
2023/03/14 15:27:43;;;;;;;;;;;;;;;;;;5076444;28;19908;-74
2023/03/14 15:30:09;;;;;;;;;;;;;;;;;;5076446;28;19999;-73
2023/03/14 15:32:36;;;;;;;;;;;;;;;;;;5076394;28;19923;-72
2023/03/14 15:35:02;;;;;;;;;;;;;;;;;;5076333;28;19942;-73
2023/03/14 15:37:29;;;;;;;;;;;;;;;;;;5076471;28;20292;-74
2023/03/14 15:40:01;;;;;;;;;;;;;;;;;;5076142;28;19927;-75
2023/03/14 15:42:30;;;;;;;;;;;;;;;;;;5076477;28;20288;-74
2023/03/14 15:45:02;;;;;;;;;;;;;;;;;;5076670;28;19990;-72
2023/03/14 15:47:31;;;;;;;;;;;;;;;;;;5076105;28;19908;-74
2023/03/14 15:50:01;;;;;;;;;;;;;;;;;;5076041;28;19909;-72
2023/03/14 15:52:27;;;;;;;;;;;;;;;;;;5076039;28;19908;-72
2023/03/14 15:54:57;;;;;;;;;;;;;;;;;;5076230;28;19920;-74
2023/03/14 15:57:24;;;;;;;;;;;;;;;;;;5075643;28;19962;-74
2023/03/14 15:59:50;;;;;;;;;;;;;;;;;;5076302;28;19930;-73
2023/03/14 16:02:17;;;;;;;;;;;;;;;;;;5075791;28;19909;-74
2023/03/14 16:04:43;;;;;;;;;;;;;;;;;;5076018;28;19914;-73
2023/03/14 16:07:13;;;;;;;;;;;;;;;;;;5075948;28;19931;-74
2023/03/14 16:09:40;;;;;;;;;;;;;;;;;;5074368;28;20355;-74
2023/03/14 16:12:07;;;;;;;;;;;;;;;;;;5075571;28;19908;-72
2023/03/14 16:14:42;;;;;;;;;;;;;;;;;;5075872;28;19912;-73
2023/03/14 16:17:10;;;;;;;;;;;;;;;;;;5075579;28;19983;-73
2023/03/14 16:19:40;;;;;;;;;;;;;;;;;;5075407;28;20441;-73
2023/03/14 16:22:07;;;;;;;;;;;;;;;;;;5075832;28;19912;-73
2023/03/14 16:24:33;;;;;;;;;;;;;;;;;;5075658;28;19916;-74
2023/03/14 16:26:59;;;;;;;;;;;;;;;;;;5075558;28;19908;-73
2023/03/14 16:29:26;;;;;;;;;;;;;;;;;;5075375;28;19915;-76
2023/03/14 16:31:51;;;;;;;;;;;;;;;;;;5075248;28;19908;-73
2023/03/14 16:34:17;;;;;;;;;;;;;;;;;;5074592;28;19915;-73
2023/03/14 16:36:44;;;;;;;;;;;;;;;;;;5075240;28;20011;-74
2023/03/14 16:39:10;;;;;;;;;;;;;;;;;;5074769;28;19917;-73